Terminal Aerodrome Forecast
Issued by NWS

Home | Current Version | Previous Version | Text Only | Print | Product List | Glossary On
Versions: 1 2 3 4 5 6 7 8 9 10 11 12 13 14 15 16 17
000
FTAK31 PAJN 302300
TAFAGY
TAF
PAGY 302330Z 3100/3124 21015G25KT P6SM VCSH SCT030 OVC070
     FM310400 21006KT P6SM SCT050 BKN100
     FM311000 VRB03KT P6SM BCFG SCT002 BKN100
     FM311800 21008KT P6SM FEW100
      AMD LTD TO CLD VIS AND WIND=

USA.gov is the U.S. government's official web portal to all federal, state and local government web resources and services.